Terminal Aerodrome Forecast
Issued by NWS

Home | Current Version | Previous Version | Text Only | Print | Product List | Glossary On
Versions: 1 2 3 4 5 6 7 8 9 10 11 12 13 14 15 16 17
000
FTUS43 KPAH 300500
TAFCGI
TAF
KCGI 300520Z 3006/3106 34011G18KT P6SM OVC027
     FM300830 34009G16KT P6SM OVC018
     FM301600 01006KT P6SM SCT020
     FM301800 36003KT P6SM SKC=

USA.gov is the U.S. government's official web portal to all federal, state and local government web resources and services.